sensor_id;sensor_type;location;lat;lon;timestamp;pressure;altitude;pressure_sealevel;temperature;humidity
6680;BME280;3376;42.664;23.346;2023-04-01T00:01:54;93677.50;;;12.20;78.29
6680;BME280;3376;42.664;23.346;2023-04-01T00:04:20;93679.69;;;12.23;78.07
6680;BME280;3376;42.664;23.346;2023-04-01T00:06:47;93687.25;;;12.24;78.46
6680;BME280;3376;42.664;23.346;2023-04-01T00:09:15;93686.28;;;12.25;77.85
6680;BME280;3376;42.664;23.346;2023-04-01T00:11:43;93681.66;;;12.27;76.45
6680;BME280;3376;42.664;23.346;2023-04-01T00:14:11;93676.88;;;12.24;76.19
6680;BME280;3376;42.664;23.346;2023-04-01T00:16:38;93687.69;;;12.21;76.04
6680;BME280;3376;42.664;23.346;2023-04-01T00:19:05;93678.94;;;12.09;75.37
6680;BME280;3376;42.664;23.346;2023-04-01T00:21:31;93677.75;;;12.05;75.78
6680;BME280;3376;42.664;23.346;2023-04-01T00:23:58;93691.31;;;12.07;75.49
6680;BME280;3376;42.664;23.346;2023-04-01T00:26:27;93700.53;;;12.03;75.78
6680;BME280;3376;42.664;23.346;2023-04-01T00:28:53;93692.75;;;11.97;76.23
6680;BME280;3376;42.664;23.346;2023-04-01T00:31:20;93692.56;;;11.85;76.14
6680;BME280;3376;42.664;23.346;2023-04-01T00:33:47;93688.22;;;11.79;76.81
6680;BME280;3376;42.664;23.346;2023-04-01T00:36:17;93693.97;;;11.81;77.29
6680;BME280;3376;42.664;23.346;2023-04-01T00:38:44;93672.25;;;11.69;77.11
6680;BME280;3376;42.664;23.346;2023-04-01T00:41:12;93678.22;;;11.76;78.14
6680;BME280;3376;42.664;23.346;2023-04-01T00:43:43;93646.72;;;11.59;77.12
6680;BME280;3376;42.664;23.346;2023-04-01T00:46:10;93665.47;;;11.61;77.98
6680;BME280;3376;42.664;23.346;2023-04-01T00:48:39;93643.94;;;11.48;78.73
6680;BME280;3376;42.664;23.346;2023-04-01T00:51:11;93644.13;;;11.53;78.94
6680;BME280;3376;42.664;23.346;2023-04-01T00:53:41;93647.50;;;11.60;79.00
6680;BME280;3376;42.664;23.346;2023-04-01T00:56:12;93652.91;;;11.65;79.56
6680;BME280;3376;42.664;23.346;2023-04-01T00:58:46;93637.94;;;11.54;79.74
6680;BME280;3376;42.664;23.346;2023-04-01T01:01:15;93493.31;;;10.59;78.27
6680;BME280;3376;42.664;23.346;2023-04-01T01:03:42;93635.97;;;11.30;79.96
6680;BME280;3376;42.664;23.346;2023-04-01T01:06:20;93632.78;;;11.28;80.60
6680;BME280;3376;42.664;23.346;2023-04-01T01:09:03;93621.44;;;11.03;80.71
6680;BME280;3376;42.664;23.346;2023-04-01T01:11:37;93627.03;;;10.87;82.49
6680;BME280;3376;42.664;23.346;2023-04-01T01:14:15;93622.03;;;10.79;82.58
6680;BME280;3376;42.664;23.346;2023-04-01T01:16:50;93603.69;;;10.60;83.52
6680;BME280;3376;42.664;23.346;2023-04-01T01:19:35;93602.91;;;10.60;84.22
6680;BME280;3376;42.664;23.346;2023-04-01T01:22:25;93607.69;;;10.63;84.26
6680;BME280;3376;42.664;23.346;2023-04-01T01:25:16;93593.16;;;10.62;84.13
6680;BME280;3376;42.664;23.346;2023-04-01T01:27:54;93600.91;;;10.68;84.20
6680;BME280;3376;42.664;23.346;2023-04-01T01:30:34;93578.22;;;10.57;82.98
6680;BME280;3376;42.664;23.346;2023-04-01T01:33:13;93594.34;;;10.86;81.72
6680;BME280;3376;42.664;23.346;2023-04-01T01:35:49;93579.81;;;10.85;82.29
6680;BME280;3376;42.664;23.346;2023-04-01T01:38:19;93587.38;;;10.93;81.64
6680;BME280;3376;42.664;23.346;2023-04-01T01:40:50;93561.06;;;10.83;80.48
6680;BME280;3376;42.664;23.346;2023-04-01T01:43:21;93589.94;;;10.99;81.34
6680;BME280;3376;42.664;23.346;2023-04-01T01:45:52;93585.34;;;11.08;82.29
6680;BME280;3376;42.664;23.346;2023-04-01T01:48:20;93580.59;;;10.98;80.82
6680;BME280;3376;42.664;23.346;2023-04-01T01:50:50;93590.53;;;11.01;80.45
6680;BME280;3376;42.664;23.346;2023-04-01T01:53:17;93569.03;;;10.94;80.18
6680;BME280;3376;42.664;23.346;2023-04-01T01:55:45;93557.66;;;11.02;79.91
6680;BME280;3376;42.664;23.346;2023-04-01T01:58:17;93537.34;;;10.92;78.47
6680;BME280;3376;42.664;23.346;2023-04-01T02:00:50;93571.41;;;11.15;77.50
6680;BME280;3376;42.664;23.346;2023-04-01T02:03:20;93547.91;;;11.04;78.12
6680;BME280;3376;42.664;23.346;2023-04-01T02:05:51;93570.38;;;11.29;78.98
6680;BME280;3376;42.664;23.346;2023-04-01T02:08:21;93566.19;;;11.22;80.97
6680;BME280;3376;42.664;23.346;2023-04-01T02:10:55;93559.63;;;11.13;81.53
6680;BME280;3376;42.664;23.346;2023-04-01T02:13:25;93446.16;;;10.44;80.98
6680;BME280;3376;42.664;23.346;2023-04-01T02:15:57;93563.00;;;11.26;80.33
6680;BME280;3376;42.664;23.346;2023-04-01T02:18:25;93550.59;;;11.35;81.20
6680;BME280;3376;42.664;23.346;2023-04-01T02:20:54;93538.06;;;11.32;82.68
6680;BME280;3376;42.664;23.346;2023-04-01T02:23:22;93547.41;;;11.39;81.74
6680;BME280;3376;42.664;23.346;2023-04-01T02:25:49;93516.81;;;10.91;81.18
6680;BME280;3376;42.664;23.346;2023-04-01T02:28:18;93544.31;;;10.98;81.76
6680;BME280;3376;42.664;23.346;2023-04-01T02:30:46;93543.09;;;11.01;82.29
6680;BME280;3376;42.664;23.346;2023-04-01T02:33:15;93547.03;;;11.23;79.85
6680;BME280;3376;42.664;23.346;2023-04-01T02:35:42;93555.78;;;11.35;81.54
6680;BME280;3376;42.664;23.346;2023-04-01T02:38:10;93552.44;;;11.15;80.51
6680;BME280;3376;42.664;23.346;2023-04-01T02:40:45;93530.97;;;10.88;81.39
6680;BME280;3376;42.664;23.346;2023-04-01T02:43:12;93560.63;;;10.99;81.71
6680;BME280;3376;42.664;23.346;2023-04-01T02:45:39;93557.84;;;10.94;82.58
6680;BME280;3376;42.664;23.346;2023-04-01T02:48:06;93549.91;;;10.95;82.48
6680;BME280;3376;42.664;23.346;2023-04-01T02:50:33;93539.75;;;10.81;83.98
6680;BME280;3376;42.664;23.346;2023-04-01T02:53:00;93541.34;;;10.75;79.68
6680;BME280;3376;42.664;23.346;2023-04-01T02:55:29;93504.50;;;10.53;77.65
6680;BME280;3376;42.664;23.346;2023-04-01T02:57:56;93566.22;;;10.96;81.77
6680;BME280;3376;42.664;23.346;2023-04-01T03:00:23;93568.63;;;11.04;80.83
6680;BME280;3376;42.664;23.346;2023-04-01T03:02:50;93579.75;;;11.11;79.51
6680;BME280;3376;42.664;23.346;2023-04-01T03:05:17;93582.94;;;11.19;79.51
6680;BME280;3376;42.664;23.346;2023-04-01T03:07:44;93583.56;;;11.15;80.30
6680;BME280;3376;42.664;23.346;2023-04-01T03:10:11;93584.16;;;11.17;80.36
6680;BME280;3376;42.664;23.346;2023-04-01T03:12:39;93581.97;;;11.14;80.47
6680;BME280;3376;42.664;23.346;2023-04-01T03:15:06;93594.28;;;11.38;80.11
6680;BME280;3376;42.664;23.346;2023-04-01T03:17:35;93585.75;;;11.24;80.27
6680;BME280;3376;42.664;23.346;2023-04-01T03:20:02;93587.75;;;11.16;80.49
6680;BME280;3376;42.664;23.346;2023-04-01T03:22:30;93587.34;;;11.19;81.70
6680;BME280;3376;42.664;23.346;2023-04-01T03:24:57;93569.81;;;11.08;81.46
6680;BME280;3376;42.664;23.346;2023-04-01T03:27:23;93596.50;;;11.15;82.25
6680;BME280;3376;42.664;23.346;2023-04-01T03:29:51;93566.22;;;11.02;82.42
6680;BME280;3376;42.664;23.346;2023-04-01T03:32:18;93590.97;;;10.98;83.63
6680;BME280;3376;42.664;23.346;2023-04-01T03:34:45;93596.13;;;10.98;84.87
6680;BME280;3376;42.664;23.346;2023-04-01T03:37:12;93600.50;;;11.04;84.63
6680;BME280;3376;42.664;23.346;2023-04-01T03:39:39;93589.56;;;11.09;84.89
6680;BME280;3376;42.664;23.346;2023-04-01T03:42:06;93607.25;;;11.25;84.56
6680;BME280;3376;42.664;23.346;2023-04-01T03:44:33;93581.34;;;11.25;83.46
6680;BME280;3376;42.664;23.346;2023-04-01T03:47:01;93572.97;;;11.23;84.31
6680;BME280;3376;42.664;23.346;2023-04-01T03:49:29;93524.34;;;10.99;84.57
6680;BME280;3376;42.664;23.346;2023-04-01T03:51:57;93552.22;;;11.36;84.91
6680;BME280;3376;42.664;23.346;2023-04-01T03:54:24;93525.69;;;11.34;84.67
6680;BME280;3376;42.664;23.346;2023-04-01T03:56:51;93518.28;;;11.44;82.88
6680;BME280;3376;42.664;23.346;2023-04-01T03:59:18;93516.84;;;11.54;83.06
6680;BME280;3376;42.664;23.346;2023-04-01T04:01:46;93483.94;;;11.55;81.30
6680;BME280;3376;42.664;23.346;2023-04-01T04:04:14;93476.75;;;11.57;80.87
6680;BME280;3376;42.664;23.346;2023-04-01T04:06:41;93487.06;;;11.63;81.06
6680;BME280;3376;42.664;23.346;2023-04-01T04:09:08;93437.13;;;11.37;79.21
6680;BME280;3376;42.664;23.346;2023-04-01T04:11:35;93456.00;;;11.57;79.38
6680;BME280;3376;42.664;23.346;2023-04-01T04:14:02;93480.47;;;11.74;79.72
6680;BME280;3376;42.664;23.346;2023-04-01T04:16:29;93468.28;;;11.74;79.15
6680;BME280;3376;42.664;23.346;2023-04-01T04:18:55;93476.28;;;11.73;78.01
6680;BME280;3376;42.664;23.346;2023-04-01T04:21:23;93462.31;;;11.74;76.43
6680;BME280;3376;42.664;23.346;2023-04-01T04:23:50;93458.69;;;11.75;74.81
6680;BME280;3376;42.664;23.346;2023-04-01T04:26:17;93462.31;;;11.74;75.14
6680;BME280;3376;42.664;23.346;2023-04-01T04:28:44;93430.63;;;11.65;74.92
6680;BME280;3376;42.664;23.346;2023-04-01T04:31:11;93429.63;;;11.66;75.32
6680;BME280;3376;42.664;23.346;2023-04-01T04:33:38;93452.75;;;11.68;74.49
6680;BME280;3376;42.664;23.346;2023-04-01T04:36:05;93444.31;;;11.79;74.32
6680;BME280;3376;42.664;23.346;2023-04-01T04:38:34;93437.56;;;11.71;73.85
6680;BME280;3376;42.664;23.346;2023-04-01T04:41:00;93401.91;;;11.54;74.12
6680;BME280;3376;42.664;23.346;2023-04-01T04:43:27;93430.59;;;11.72;73.86
6680;BME280;3376;42.664;23.346;2023-04-01T04:45:54;93423.19;;;11.75;73.87
6680;BME280;3376;42.664;23.346;2023-04-01T04:48:20;93411.41;;;11.73;73.58
6680;BME280;3376;42.664;23.346;2023-04-01T04:50:48;93424.13;;;11.81;73.36
6680;BME280;3376;42.664;23.346;2023-04-01T04:53:16;93411.84;;;11.70;74.12
6680;BME280;3376;42.664;23.346;2023-04-01T04:55:45;93407.25;;;11.72;74.03
6680;BME280;3376;42.664;23.346;2023-04-01T04:58:12;93394.00;;;11.80;74.11
6680;BME280;3376;42.664;23.346;2023-04-01T05:00:39;93410.22;;;12.00;74.08
6680;BME280;3376;42.664;23.346;2023-04-01T05:03:07;93414.88;;;11.92;73.67
6680;BME280;3376;42.664;23.346;2023-04-01T05:05:34;93408.75;;;11.86;74.51
6680;BME280;3376;42.664;23.346;2023-04-01T05:08:01;93406.66;;;11.70;75.68
6680;BME280;3376;42.664;23.346;2023-04-01T05:10:27;93404.28;;;11.62;76.63
6680;BME280;3376;42.664;23.346;2023-04-01T05:12:56;93383.09;;;11.34;77.50
6680;BME280;3376;42.664;23.346;2023-04-01T05:15:23;93388.09;;;11.29;77.65
6680;BME280;3376;42.664;23.346;2023-04-01T05:17:50;93336.59;;;11.01;77.65
6680;BME280;3376;42.664;23.346;2023-04-01T05:20:17;93392.63;;;11.40;77.51
6680;BME280;3376;42.664;23.346;2023-04-01T05:22:44;93385.25;;;11.37;78.12
6680;BME280;3376;42.664;23.346;2023-04-01T05:25:10;93376.72;;;11.36;77.70
6680;BME280;3376;42.664;23.346;2023-04-01T05:27:37;93374.69;;;11.38;77.05
6680;BME280;3376;42.664;23.346;2023-04-01T05:30:06;93367.16;;;11.30;76.78
6680;BME280;3376;42.664;23.346;2023-04-01T05:32:33;93366.53;;;11.35;77.60
6680;BME280;3376;42.664;23.346;2023-04-01T05:35:00;93374.66;;;11.45;77.82
6680;BME280;3376;42.664;23.346;2023-04-01T05:37:27;93378.78;;;11.52;77.77
6680;BME280;3376;42.664;23.346;2023-04-01T05:39:53;93371.78;;;11.59;77.21
6680;BME280;3376;42.664;23.346;2023-04-01T05:42:20;93359.66;;;11.47;77.56
6680;BME280;3376;42.664;23.346;2023-04-01T05:44:47;93386.91;;;11.62;76.69
6680;BME280;3376;42.664;23.346;2023-04-01T05:47:15;93362.63;;;11.57;76.92
6680;BME280;3376;42.664;23.346;2023-04-01T05:49:42;93358.94;;;11.71;78.00
6680;BME280;3376;42.664;23.346;2023-04-01T05:52:08;93375.56;;;11.95;76.58
6680;BME280;3376;42.664;23.346;2023-04-01T05:54:35;93370.06;;;12.27;75.40
6680;BME280;3376;42.664;23.346;2023-04-01T05:57:02;93351.56;;;12.60;73.89
6680;BME280;3376;42.664;23.346;2023-04-01T05:59:29;93345.22;;;12.92;70.86
6680;BME280;3376;42.664;23.346;2023-04-01T06:01:57;93353.19;;;13.27;69.12
6680;BME280;3376;42.664;23.346;2023-04-01T06:04:28;93335.78;;;13.57;68.50
6680;BME280;3376;42.664;23.346;2023-04-01T06:06:59;93357.50;;;14.03;65.95
6680;BME280;3376;42.664;23.346;2023-04-01T06:09:29;93365.66;;;14.18;63.08
6680;BME280;3376;42.664;23.346;2023-04-01T06:12:22;93375.16;;;14.13;63.45
6680;BME280;3376;42.664;23.346;2023-04-01T06:15:03;93366.91;;;14.16;63.65
6680;BME280;3376;42.664;23.346;2023-04-01T06:17:44;93361.16;;;14.26;61.71
6680;BME280;3376;42.664;23.346;2023-04-01T06:20:22;93353.94;;;14.28;62.29
6680;BME280;3376;42.664;23.346;2023-04-01T06:23:26;93364.13;;;14.41;60.78
6680;BME280;3376;42.664;23.346;2023-04-01T06:26:14;93354.03;;;14.44;59.60
6680;BME280;3376;42.664;23.346;2023-04-01T06:28:56;93359.09;;;14.62;58.98
6680;BME280;3376;42.664;23.346;2023-04-01T06:31:46;93361.19;;;14.60;58.47
6680;BME280;3376;42.664;23.346;2023-04-01T06:34:33;93343.38;;;14.57;60.22
6680;BME280;3376;42.664;23.346;2023-04-01T06:37:19;93351.72;;;14.71;60.11
6680;BME280;3376;42.664;23.346;2023-04-01T06:40:07;93352.63;;;14.76;60.18
6680;BME280;3376;42.664;23.346;2023-04-01T06:42:45;93348.91;;;14.84;58.81
6680;BME280;3376;42.664;23.346;2023-04-01T06:45:28;93323.53;;;14.68;60.30
6680;BME280;3376;42.664;23.346;2023-04-01T06:48:18;93317.31;;;14.46;61.79
6680;BME280;3376;42.664;23.346;2023-04-01T06:50:54;93318.66;;;14.25;64.10
6680;BME280;3376;42.664;23.346;2023-04-01T06:53:31;93317.75;;;14.08;63.74
6680;BME280;3376;42.664;23.346;2023-04-01T06:56:04;93335.53;;;13.99;64.74
6680;BME280;3376;42.664;23.346;2023-04-01T06:58:36;93317.53;;;13.98;65.80
6680;BME280;3376;42.664;23.346;2023-04-01T07:01:07;93305.50;;;13.97;66.31
6680;BME280;3376;42.664;23.346;2023-04-01T07:03:37;93305.19;;;13.93;67.40
6680;BME280;3376;42.664;23.346;2023-04-01T07:06:10;93159.66;;;12.93;68.43
6680;BME280;3376;42.664;23.346;2023-04-01T07:08:43;93312.50;;;13.85;68.57
6680;BME280;3376;42.664;23.346;2023-04-01T07:11:15;93296.53;;;13.70;67.94
6680;BME280;3376;42.664;23.346;2023-04-01T07:13:49;93315.47;;;13.88;68.16
6680;BME280;3376;42.664;23.346;2023-04-01T07:16:21;93304.84;;;14.01;68.20
6680;BME280;3376;42.664;23.346;2023-04-01T07:18:54;93270.09;;;13.84;68.93
6680;BME280;3376;42.664;23.346;2023-04-01T07:21:26;93294.66;;;14.23;67.51
6680;BME280;3376;42.664;23.346;2023-04-01T07:24:01;93308.38;;;14.30;67.90
6680;BME280;3376;42.664;23.346;2023-04-01T07:26:29;93305.78;;;14.30;67.61
6680;BME280;3376;42.664;23.346;2023-04-01T07:28:56;93303.75;;;14.32;68.18
6680;BME280;3376;42.664;23.346;2023-04-01T07:31:35;93306.78;;;14.52;67.68
6680;BME280;3376;42.664;23.346;2023-04-01T07:34:12;93305.19;;;14.63;68.01
6680;BME280;3376;42.664;23.346;2023-04-01T07:36:48;93277.22;;;14.58;68.08
6680;BME280;3376;42.664;23.346;2023-04-01T07:39:27;93315.81;;;14.73;67.52
6680;BME280;3376;42.664;23.346;2023-04-01T07:42:02;93312.28;;;14.79;67.14
6680;BME280;3376;42.664;23.346;2023-04-01T07:44:39;93305.81;;;14.93;66.21
6680;BME280;3376;42.664;23.346;2023-04-01T07:47:17;93271.78;;;14.88;65.87
6680;BME280;3376;42.664;23.346;2023-04-01T07:50:01;93281.53;;;15.20;65.55
6680;BME280;3376;42.664;23.346;2023-04-01T07:52:35;93285.78;;;15.10;67.46
6680;BME280;3376;42.664;23.346;2023-04-01T07:55:12;93285.88;;;15.15;67.27
6680;BME280;3376;42.664;23.346;2023-04-01T07:57:44;93276.69;;;15.12;66.77
6680;BME280;3376;42.664;23.346;2023-04-01T08:00:19;93287.06;;;15.24;64.90
6680;BME280;3376;42.664;23.346;2023-04-01T08:03:14;93293.81;;;15.08;64.66
6680;BME280;3376;42.664;23.346;2023-04-01T08:05:52;93280.16;;;14.90;65.64
6680;BME280;3376;42.664;23.346;2023-04-01T08:08:28;93285.00;;;15.09;66.11
6680;BME280;3376;42.664;23.346;2023-04-01T08:11:04;93270.13;;;15.10;65.56
6680;BME280;3376;42.664;23.346;2023-04-01T08:13:39;93262.72;;;15.18;66.23
6680;BME280;3376;42.664;23.346;2023-04-01T08:16:12;93248.97;;;15.68;76.71
6680;BME280;3376;42.664;23.346;2023-04-01T08:18:46;93245.41;;;15.90;81.75
6680;BME280;3376;42.664;23.346;2023-04-01T08:21:21;93262.53;;;16.36;72.77
6680;BME280;3376;42.664;23.346;2023-04-01T08:23:51;93231.53;;;16.44;67.79
6680;BME280;3376;42.664;23.346;2023-04-01T08:26:25;93244.63;;;16.66;64.75
6680;BME280;3376;42.664;23.346;2023-04-01T08:28:59;93241.13;;;16.77;67.48
6680;BME280;3376;42.664;23.346;2023-04-01T08:31:30;93247.06;;;16.94;66.45
6680;BME280;3376;42.664;23.346;2023-04-01T08:34:02;93204.06;;;16.85;67.20
6680;BME280;3376;42.664;23.346;2023-04-01T08:36:33;93115.72;;;16.44;63.01
6680;BME280;3376;42.664;23.346;2023-04-01T08:39:05;93211.09;;;17.06;61.55
6680;BME280;3376;42.664;23.346;2023-04-01T08:41:53;93192.91;;;16.95;62.76
6680;BME280;3376;42.664;23.346;2023-04-01T08:47:45;93174.75;;;17.41;59.46
6680;BME280;3376;42.664;23.346;2023-04-01T08:50:38;93189.75;;;17.83;58.08
6680;BME280;3376;42.664;23.346;2023-04-01T08:53:15;93184.59;;;17.88;59.05
6680;BME280;3376;42.664;23.346;2023-04-01T08:56:00;93193.28;;;17.98;59.93
6680;BME280;3376;42.664;23.346;2023-04-01T08:58:51;93157.19;;;18.10;58.14
6680;BME280;3376;42.664;23.346;2023-04-01T09:01:57;93195.25;;;18.64;59.89
6680;BME280;3376;42.664;23.346;2023-04-01T09:04:38;93203.88;;;18.65;56.76
6680;BME280;3376;42.664;23.346;2023-04-01T09:07:22;93184.47;;;18.61;54.54
6680;BME280;3376;42.664;23.346;2023-04-01T09:10:05;93183.94;;;18.64;58.56
6680;BME280;3376;42.664;23.346;2023-04-01T09:12:57;93185.47;;;18.55;53.34
6680;BME280;3376;42.664;23.346;2023-04-01T09:15:42;93182.31;;;18.53;53.73
6680;BME280;3376;42.664;23.346;2023-04-01T09:18:41;93180.75;;;18.52;48.59
6680;BME280;3376;42.664;23.346;2023-04-01T09:21:22;93181.28;;;18.49;48.85
6680;BME280;3376;42.664;23.346;2023-04-01T09:24:18;93170.91;;;18.27;48.02
6680;BME280;3376;42.664;23.346;2023-04-01T09:27:05;93170.63;;;18.24;48.15
6680;BME280;3376;42.664;23.346;2023-04-01T09:33:16;93161.78;;;18.35;47.47
6680;BME280;3376;42.664;23.346;2023-04-01T09:35:54;93149.25;;;18.42;46.54
6680;BME280;3376;42.664;23.346;2023-04-01T09:38:30;93148.25;;;18.58;44.88
6680;BME280;3376;42.664;23.346;2023-04-01T09:41:14;93151.34;;;18.40;45.50
6680;BME280;3376;42.664;23.346;2023-04-01T09:43:58;93074.25;;;17.79;47.05
6680;BME280;3376;42.664;23.346;2023-04-01T09:46:36;93131.91;;;18.41;47.54
6680;BME280;3376;42.664;23.346;2023-04-01T09:49:46;93131.44;;;18.49;46.97
6680;BME280;3376;42.664;23.346;2023-04-01T09:52:28;93104.16;;;18.45;52.58
6680;BME280;3376;42.664;23.346;2023-04-01T09:55:13;93092.41;;;18.72;48.82
6680;BME280;3376;42.664;23.346;2023-04-01T10:04:35;93108.50;;;19.26;45.41
6680;BME280;3376;42.664;23.346;2023-04-01T10:07:48;93110.06;;;19.22;44.38
6680;BME280;3376;42.664;23.346;2023-04-01T10:10:47;93110.63;;;19.34;44.96
6680;BME280;3376;42.664;23.346;2023-04-01T10:13:42;93096.16;;;19.52;44.48
6680;BME280;3376;42.664;23.346;2023-04-01T10:16:33;93087.50;;;19.36;44.41
6680;BME280;3376;42.664;23.346;2023-04-01T10:22:44;93082.22;;;19.66;44.27
6680;BME280;3376;42.664;23.346;2023-04-01T10:25:53;93081.66;;;19.84;43.54
6680;BME280;3376;42.664;23.346;2023-04-01T10:34:43;93095.84;;;19.83;43.82
6680;BME280;3376;42.664;23.346;2023-04-01T10:44:17;93066.44;;;19.66;43.52
6680;BME280;3376;42.664;23.346;2023-04-01T10:50:30;93067.78;;;19.39;44.11
6680;BME280;3376;42.664;23.346;2023-04-01T10:53:28;93054.94;;;19.32;44.46
6680;BME280;3376;42.664;23.346;2023-04-01T10:56:28;93053.34;;;19.21;44.46
6680;BME280;3376;42.664;23.346;2023-04-01T10:59:28;93039.19;;;19.12;44.68
6680;BME280;3376;42.664;23.346;2023-04-01T11:05:27;93033.63;;;18.73;46.35
6680;BME280;3376;42.664;23.346;2023-04-01T11:14:39;93021.50;;;18.37;46.62
6680;BME280;3376;42.664;23.346;2023-04-01T11:17:27;93023.34;;;18.32;47.48
6680;BME280;3376;42.664;23.346;2023-04-01T11:20:23;93026.97;;;18.26;46.03
6680;BME280;3376;42.664;23.346;2023-04-01T11:23:03;93031.88;;;17.97;45.40
6680;BME280;3376;42.664;23.346;2023-04-01T11:25:53;93023.72;;;17.89;41.45
6680;BME280;3376;42.664;23.346;2023-04-01T11:28:39;93015.50;;;17.65;41.21
6680;BME280;3376;42.664;23.346;2023-04-01T11:31:39;93051.47;;;17.90;40.83
6680;BME280;3376;42.664;23.346;2023-04-01T11:34:19;93060.50;;;17.62;42.87
6680;BME280;3376;42.664;23.346;2023-04-01T11:36:55;93083.66;;;17.43;47.61
6680;BME280;3376;42.664;23.346;2023-04-01T11:39:33;93083.25;;;17.20;49.80
6680;BME280;3376;42.664;23.346;2023-04-01T11:42:12;93118.16;;;17.04;48.86
6680;BME280;3376;42.664;23.346;2023-04-01T11:44:51;93063.00;;;16.47;50.91
6680;BME280;3376;42.664;23.346;2023-04-01T11:47:43;93152.28;;;16.87;53.26
6680;BME280;3376;42.664;23.346;2023-04-01T11:50:22;93171.88;;;16.20;61.39
6680;BME280;3376;42.664;23.346;2023-04-01T11:53:01;93227.69;;;15.76;68.32
6680;BME280;3376;42.664;23.346;2023-04-01T11:55:38;93234.31;;;15.05;80.04
6680;BME280;3376;42.664;23.346;2023-04-01T11:58:29;93268.16;;;14.26;88.57
6680;BME280;3376;42.664;23.346;2023-04-01T12:01:19;93287.34;;;13.56;96.67
6680;BME280;3376;42.664;23.346;2023-04-01T12:04:23;93285.91;;;13.19;100.00
6680;BME280;3376;42.664;23.346;2023-04-01T12:07:01;93273.56;;;12.96;100.00
6680;BME280;3376;42.664;23.346;2023-04-01T12:09:36;93250.94;;;12.85;100.00
6680;BME280;3376;42.664;23.346;2023-04-01T12:12:14;93184.81;;;12.22;100.00
6680;BME280;3376;42.664;23.346;2023-04-01T12:14:52;93266.75;;;12.65;100.00
6680;BME280;3376;42.664;23.346;2023-04-01T12:17:30;93253.09;;;12.88;100.00
6680;BME280;3376;42.664;23.346;2023-04-01T12:20:21;93257.63;;;13.11;100.00
6680;BME280;3376;42.664;23.346;2023-04-01T12:22:59;93261.28;;;13.33;100.00
6680;BME280;3376;42.664;23.346;2023-04-01T12:25:45;93261.19;;;13.39;100.00
6680;BME280;3376;42.664;23.346;2023-04-01T12:28:22;93248.88;;;13.58;100.00
6680;BME280;3376;42.664;23.346;2023-04-01T12:31:02;93259.78;;;13.78;100.00
6680;BME280;3376;42.664;23.346;2023-04-01T12:33:52;93261.03;;;13.87;100.00
6680;BME280;3376;42.664;23.346;2023-04-01T12:36:41;93249.84;;;13.98;100.00
6680;BME280;3376;42.664;23.346;2023-04-01T12:39:23;93276.31;;;14.18;100.00
6680;BME280;3376;42.664;23.346;2023-04-01T12:42:04;93142.34;;;13.40;100.00
6680;BME280;3376;42.664;23.346;2023-04-01T12:44:52;93276.78;;;14.15;100.00
6680;BME280;3376;42.664;23.346;2023-04-01T12:47:56;93271.00;;;14.01;100.00
6680;BME280;3376;42.664;23.346;2023-04-01T12:50:37;93265.75;;;13.55;100.00
6680;BME280;3376;42.664;23.346;2023-04-01T12:53:32;93245.66;;;13.21;100.00
6680;BME280;3376;42.664;23.346;2023-04-01T12:56:11;93260.47;;;13.21;100.00
6680;BME280;3376;42.664;23.346;2023-04-01T12:59:04;93214.22;;;12.81;100.00
6680;BME280;3376;42.664;23.346;2023-04-01T13:01:59;93240.78;;;12.83;100.00
6680;BME280;3376;42.664;23.346;2023-04-01T13:08:03;93213.75;;;13.03;100.00
6680;BME280;3376;42.664;23.346;2023-04-01T13:10:45;93220.41;;;13.10;100.00
6680;BME280;3376;42.664;23.346;2023-04-01T13:13:41;93216.72;;;13.18;100.00
6680;BME280;3376;42.664;23.346;2023-04-01T13:16:15;93194.94;;;13.53;100.00
6680;BME280;3376;42.664;23.346;2023-04-01T13:18:55;93164.47;;;14.00;100.00
6680;BME280;3376;42.664;23.346;2023-04-01T13:21:32;93155.25;;;14.88;100.00
6680;BME280;3376;42.664;23.346;2023-04-01T13:24:09;93159.03;;;15.59;100.00
6680;BME280;3376;42.664;23.346;2023-04-01T13:26:45;93192.44;;;16.33;93.54
6680;BME280;3376;42.664;23.346;2023-04-01T13:29:20;93175.88;;;16.92;97.76
6680;BME280;3376;42.664;23.346;2023-04-01T13:31:56;93192.25;;;17.63;89.28
6680;BME280;3376;42.664;23.346;2023-04-01T13:34:42;93182.09;;;18.13;84.59
6680;BME280;3376;42.664;23.346;2023-04-01T13:37:24;93170.09;;;18.22;80.54
6680;BME280;3376;42.664;23.346;2023-04-01T13:40:05;93174.72;;;18.05;77.19
6680;BME280;3376;42.664;23.346;2023-04-01T13:42:44;93165.63;;;18.22;75.30
6680;BME280;3376;42.664;23.346;2023-04-01T13:45:17;93153.78;;;18.10;73.00
6680;BME280;3376;42.664;23.346;2023-04-01T13:50:55;93148.25;;;18.01;68.21
6680;BME280;3376;42.664;23.346;2023-04-01T13:53:55;93154.94;;;18.29;66.34
6680;BME280;3376;42.664;23.346;2023-04-01T13:56:34;93150.13;;;18.72;64.88
6680;BME280;3376;42.664;23.346;2023-04-01T14:02:22;93139.94;;;19.01;65.16
6680;BME280;3376;42.664;23.346;2023-04-01T14:05:15;93118.41;;;18.89;63.31
6680;BME280;3376;42.664;23.346;2023-04-01T14:08:02;93113.19;;;18.99;60.45
6680;BME280;3376;42.664;23.346;2023-04-01T14:10:38;93118.69;;;18.93;62.39
6680;BME280;3376;42.664;23.346;2023-04-01T14:13:13;93112.41;;;18.84;61.71
6680;BME280;3376;42.664;23.346;2023-04-01T14:15:57;93117.84;;;18.62;61.39
6680;BME280;3376;42.664;23.346;2023-04-01T14:21:34;93093.91;;;17.87;72.19
6680;BME280;3376;42.664;23.346;2023-04-01T14:24:14;93077.03;;;17.26;74.00
6680;BME280;3376;42.664;23.346;2023-04-01T14:27:12;93091.88;;;17.20;75.96
6680;BME280;3376;42.664;23.346;2023-04-01T14:29:51;93089.13;;;17.00;76.46
6680;BME280;3376;42.664;23.346;2023-04-01T14:32:30;93086.84;;;16.82;77.79
6680;BME280;3376;42.664;23.346;2023-04-01T14:35:16;93086.47;;;16.69;79.44
6680;BME280;3376;42.664;23.346;2023-04-01T14:41:18;93071.13;;;16.77;77.77
6680;BME280;3376;42.664;23.346;2023-04-01T14:43:52;93071.91;;;16.78;78.35
6680;BME280;3376;42.664;23.346;2023-04-01T14:49:29;93084.16;;;17.35;75.81
6680;BME280;3376;42.664;23.346;2023-04-01T14:52:04;93081.09;;;17.48;75.54
6680;BME280;3376;42.664;23.346;2023-04-01T14:54:36;93073.69;;;17.77;73.44
6680;BME280;3376;42.664;23.346;2023-04-01T14:57:10;93064.56;;;17.85;72.39
6680;BME280;3376;42.664;23.346;2023-04-01T14:59:40;92991.50;;;17.41;70.54